sensor_id;sensor_type;location;lat;lon;timestamp;P1;durP1;ratioP1;P2;durP2;ratioP2
64712;SDS011;51140;45.340;5.980;2022-12-18T00:01:47;38.92;;;18.75;;
64712;SDS011;51140;45.340;5.980;2022-12-18T00:04:31;34.08;;;16.70;;
64712;SDS011;51140;45.340;5.980;2022-12-18T00:06:57;47.88;;;24.05;;
64712;SDS011;51140;45.340;5.980;2022-12-18T00:09:23;65.88;;;33.28;;
64712;SDS011;51140;45.340;5.980;2022-12-18T00:11:49;45.50;;;23.75;;
64712;SDS011;51140;45.340;5.980;2022-12-18T00:14:14;40.70;;;22.70;;
64712;SDS011;51140;45.340;5.980;2022-12-18T00:16:42;51.10;;;26.48;;
64712;SDS011;51140;45.340;5.980;2022-12-18T00:19:08;58.30;;;28.42;;
64712;SDS011;51140;45.340;5.980;2022-12-18T00:21:35;37.58;;;19.83;;
64712;SDS011;51140;45.340;5.980;2022-12-18T00:24:01;35.80;;;18.35;;
64712;SDS011;51140;45.340;5.980;2022-12-18T00:26:28;30.15;;;16.35;;
64712;SDS011;51140;45.340;5.980;2022-12-18T00:28:57;28.88;;;16.65;;
64712;SDS011;51140;45.340;5.980;2022-12-18T00:31:24;33.55;;;16.42;;
64712;SDS011;51140;45.340;5.980;2022-12-18T00:33:50;34.08;;;16.23;;
64712;SDS011;51140;45.340;5.980;2022-12-18T00:36:17;23.25;;;11.63;;
64712;SDS011;51140;45.340;5.980;2022-12-18T00:38:45;32.10;;;16.90;;
64712;SDS011;51140;45.340;5.980;2022-12-18T00:41:12;27.50;;;15.15;;
64712;SDS011;51140;45.340;5.980;2022-12-18T00:43:59;22.85;;;12.20;;
64712;SDS011;51140;45.340;5.980;2022-12-18T00:46:25;20.85;;;11.20;;
64712;SDS011;51140;45.340;5.980;2022-12-18T00:48:50;26.75;;;13.35;;
64712;SDS011;51140;45.340;5.980;2022-12-18T00:51:15;23.48;;;12.15;;
64712;SDS011;51140;45.340;5.980;2022-12-18T00:53:41;19.83;;;10.73;;
64712;SDS011;51140;45.340;5.980;2022-12-18T00:56:06;21.55;;;11.25;;
64712;SDS011;51140;45.340;5.980;2022-12-18T00:58:32;18.45;;;8.95;;
64712;SDS011;51140;45.340;5.980;2022-12-18T01:01:06;18.95;;;6.93;;
64712;SDS011;51140;45.340;5.980;2022-12-18T01:03:32;15.05;;;7.35;;
64712;SDS011;51140;45.340;5.980;2022-12-18T01:05:57;18.30;;;8.77;;
64712;SDS011;51140;45.340;5.980;2022-12-18T01:08:23;13.88;;;6.40;;
64712;SDS011;51140;45.340;5.980;2022-12-18T01:10:48;15.57;;;6.88;;
64712;SDS011;51140;45.340;5.980;2022-12-18T01:13:14;14.70;;;7.63;;
64712;SDS011;51140;45.340;5.980;2022-12-18T01:15:39;16.40;;;7.63;;
64712;SDS011;51140;45.340;5.980;2022-12-18T01:18:05;16.60;;;8.60;;
64712;SDS011;51140;45.340;5.980;2022-12-18T01:20:31;15.55;;;7.70;;
64712;SDS011;51140;45.340;5.980;2022-12-18T01:22:57;16.75;;;8.43;;
64712;SDS011;51140;45.340;5.980;2022-12-18T01:25:23;15.40;;;7.80;;
64712;SDS011;51140;45.340;5.980;2022-12-18T01:27:48;16.20;;;8.50;;
64712;SDS011;51140;45.340;5.980;2022-12-18T01:30:14;17.00;;;8.98;;
64712;SDS011;51140;45.340;5.980;2022-12-18T01:32:39;20.55;;;10.52;;
64712;SDS011;51140;45.340;5.980;2022-12-18T01:35:05;20.15;;;9.23;;
64712;SDS011;51140;45.340;5.980;2022-12-18T01:37:31;16.48;;;8.27;;
64712;SDS011;51140;45.340;5.980;2022-12-18T01:39:56;14.30;;;6.68;;
64712;SDS011;51140;45.340;5.980;2022-12-18T01:42:22;13.02;;;6.00;;
64712;SDS011;51140;45.340;5.980;2022-12-18T01:50:37;16.58;;;9.13;;
64712;SDS011;51140;45.340;5.980;2022-12-18T01:53:14;14.38;;;7.78;;
64712;SDS011;51140;45.340;5.980;2022-12-18T01:55:48;15.30;;;6.55;;
64712;SDS011;51140;45.340;5.980;2022-12-18T01:58:17;12.32;;;6.72;;
64712;SDS011;51140;45.340;5.980;2022-12-18T02:00:44;13.93;;;6.00;;
64712;SDS011;51140;45.340;5.980;2022-12-18T02:03:10;12.70;;;6.45;;
64712;SDS011;51140;45.340;5.980;2022-12-18T02:16:13;12.70;;;6.70;;
64712;SDS011;51140;45.340;5.980;2022-12-18T02:18:50;14.93;;;7.03;;
64712;SDS011;51140;45.340;5.980;2022-12-18T02:21:25;14.60;;;6.47;;
64712;SDS011;51140;45.340;5.980;2022-12-18T02:27:10;15.07;;;6.65;;
64712;SDS011;51140;45.340;5.980;2022-12-18T02:32:10;13.93;;;6.60;;
64712;SDS011;51140;45.340;5.980;2022-12-18T02:34:39;13.23;;;6.38;;
64712;SDS011;51140;45.340;5.980;2022-12-18T02:37:06;15.75;;;7.07;;
64712;SDS011;51140;45.340;5.980;2022-12-18T02:39:36;14.93;;;7.07;;
64712;SDS011;51140;45.340;5.980;2022-12-18T02:42:03;13.43;;;5.95;;
64712;SDS011;51140;45.340;5.980;2022-12-18T02:44:33;14.13;;;6.20;;
64712;SDS011;51140;45.340;5.980;2022-12-18T02:46:59;12.40;;;5.78;;
64712;SDS011;51140;45.340;5.980;2022-12-18T03:00:21;11.40;;;5.90;;
64712;SDS011;51140;45.340;5.980;2022-12-18T03:05:19;13.43;;;6.65;;
64712;SDS011;51140;45.340;5.980;2022-12-18T03:07:51;15.63;;;7.07;;
64712;SDS011;51140;45.340;5.980;2022-12-18T03:10:24;15.48;;;7.60;;
64712;SDS011;51140;45.340;5.980;2022-12-18T03:12:55;14.88;;;7.57;;
64712;SDS011;51140;45.340;5.980;2022-12-18T03:15:30;18.63;;;7.50;;
64712;SDS011;51140;45.340;5.980;2022-12-18T03:18:04;17.83;;;8.25;;
64712;SDS011;51140;45.340;5.980;2022-12-18T03:20:34;19.95;;;9.43;;
64712;SDS011;51140;45.340;5.980;2022-12-18T03:23:04;17.15;;;8.20;;
64712;SDS011;51140;45.340;5.980;2022-12-18T03:25:37;18.08;;;8.27;;
64712;SDS011;51140;45.340;5.980;2022-12-18T03:28:07;21.98;;;9.63;;
64712;SDS011;51140;45.340;5.980;2022-12-18T03:30:37;23.75;;;10.52;;
64712;SDS011;51140;45.340;5.980;2022-12-18T03:33:09;19.70;;;9.50;;
64712;SDS011;51140;45.340;5.980;2022-12-18T03:35:39;18.40;;;8.38;;
64712;SDS011;51140;45.340;5.980;2022-12-18T03:38:07;16.13;;;7.13;;
64712;SDS011;51140;45.340;5.980;2022-12-18T03:43:18;21.13;;;9.27;;
64712;SDS011;51140;45.340;5.980;2022-12-18T03:46:41;20.00;;;9.13;;
64712;SDS011;51140;45.340;5.980;2022-12-18T03:48:59;19.33;;;9.00;;
64712;SDS011;51140;45.340;5.980;2022-12-18T03:51:38;17.08;;;7.90;;
64712;SDS011;51140;45.340;5.980;2022-12-18T03:54:08;15.55;;;7.03;;
64712;SDS011;51140;45.340;5.980;2022-12-18T03:56:37;16.83;;;7.18;;
64712;SDS011;51140;45.340;5.980;2022-12-18T03:59:08;17.70;;;7.35;;
64712;SDS011;51140;45.340;5.980;2022-12-18T04:01:39;18.63;;;7.95;;
64712;SDS011;51140;45.340;5.980;2022-12-18T04:04:08;17.85;;;8.52;;
64712;SDS011;51140;45.340;5.980;2022-12-18T04:06:36;20.40;;;8.80;;
64712;SDS011;51140;45.340;5.980;2022-12-18T04:09:03;16.70;;;7.70;;
64712;SDS011;51140;45.340;5.980;2022-12-18T04:11:29;16.98;;;7.43;;
64712;SDS011;51140;45.340;5.980;2022-12-18T04:13:55;19.08;;;7.47;;
64712;SDS011;51140;45.340;5.980;2022-12-18T04:16:22;15.45;;;7.35;;
64712;SDS011;51140;45.340;5.980;2022-12-18T04:18:48;18.73;;;7.63;;
64712;SDS011;51140;45.340;5.980;2022-12-18T04:21:14;20.00;;;8.77;;
64712;SDS011;51140;45.340;5.980;2022-12-18T04:23:39;18.15;;;7.72;;
64712;SDS011;51140;45.340;5.980;2022-12-18T04:26:05;20.55;;;9.05;;
64712;SDS011;51140;45.340;5.980;2022-12-18T04:28:30;19.27;;;8.65;;
64712;SDS011;51140;45.340;5.980;2022-12-18T04:30:55;19.70;;;8.73;;
64712;SDS011;51140;45.340;5.980;2022-12-18T04:33:21;17.40;;;7.70;;
64712;SDS011;51140;45.340;5.980;2022-12-18T04:35:46;18.27;;;7.50;;
64712;SDS011;51140;45.340;5.980;2022-12-18T04:38:12;20.98;;;8.43;;
64712;SDS011;51140;45.340;5.980;2022-12-18T04:40:37;16.98;;;8.20;;
64712;SDS011;51140;45.340;5.980;2022-12-18T04:43:03;21.17;;;8.73;;
64712;SDS011;51140;45.340;5.980;2022-12-18T04:45:30;14.40;;;7.05;;
64712;SDS011;51140;45.340;5.980;2022-12-18T04:47:59;19.52;;;7.88;;
64712;SDS011;51140;45.340;5.980;2022-12-18T04:50:26;20.38;;;7.90;;
64712;SDS011;51140;45.340;5.980;2022-12-18T04:52:52;21.50;;;7.75;;
64712;SDS011;51140;45.340;5.980;2022-12-18T04:55:18;21.48;;;10.18;;
64712;SDS011;51140;45.340;5.980;2022-12-18T04:57:43;21.75;;;9.95;;
64712;SDS011;51140;45.340;5.980;2022-12-18T05:00:09;21.92;;;9.82;;
64712;SDS011;51140;45.340;5.980;2022-12-18T05:02:35;21.30;;;10.40;;
64712;SDS011;51140;45.340;5.980;2022-12-18T05:05:00;24.15;;;10.90;;
64712;SDS011;51140;45.340;5.980;2022-12-18T05:07:25;22.98;;;10.00;;
64712;SDS011;51140;45.340;5.980;2022-12-18T05:09:51;19.08;;;8.80;;
64712;SDS011;51140;45.340;5.980;2022-12-18T05:12:16;19.50;;;8.48;;
64712;SDS011;51140;45.340;5.980;2022-12-18T05:14:42;17.45;;;7.88;;
64712;SDS011;51140;45.340;5.980;2022-12-18T05:17:07;18.17;;;7.55;;
64712;SDS011;51140;45.340;5.980;2022-12-18T05:19:33;17.20;;;7.68;;
64712;SDS011;51140;45.340;5.980;2022-12-18T05:21:58;19.80;;;9.55;;
64712;SDS011;51140;45.340;5.980;2022-12-18T05:24:24;20.73;;;9.63;;
64712;SDS011;51140;45.340;5.980;2022-12-18T05:26:49;17.73;;;7.72;;
64712;SDS011;51140;45.340;5.980;2022-12-18T05:29:15;14.65;;;6.30;;
64712;SDS011;51140;45.340;5.980;2022-12-18T05:31:40;12.05;;;4.65;;
64712;SDS011;51140;45.340;5.980;2022-12-18T05:34:05;11.68;;;4.97;;
64712;SDS011;51140;45.340;5.980;2022-12-18T05:36:31;13.85;;;7.32;;
64712;SDS011;51140;45.340;5.980;2022-12-18T05:38:56;17.88;;;9.18;;
64712;SDS011;51140;45.340;5.980;2022-12-18T05:41:22;15.02;;;6.63;;
64712;SDS011;51140;45.340;5.980;2022-12-18T05:43:47;16.88;;;6.97;;
64712;SDS011;51140;45.340;5.980;2022-12-18T05:46:14;15.18;;;6.13;;
64712;SDS011;51140;45.340;5.980;2022-12-18T05:48:42;15.98;;;6.10;;
64712;SDS011;51140;45.340;5.980;2022-12-18T05:51:13;16.35;;;6.60;;
64712;SDS011;51140;45.340;5.980;2022-12-18T05:53:40;13.88;;;6.30;;
64712;SDS011;51140;45.340;5.980;2022-12-18T05:56:08;13.77;;;6.10;;
64712;SDS011;51140;45.340;5.980;2022-12-18T05:58:36;15.38;;;6.80;;
64712;SDS011;51140;45.340;5.980;2022-12-18T06:01:09;15.07;;;6.78;;
64712;SDS011;51140;45.340;5.980;2022-12-18T06:03:36;22.20;;;8.27;;
64712;SDS011;51140;45.340;5.980;2022-12-18T06:06:02;17.42;;;7.30;;
64712;SDS011;51140;45.340;5.980;2022-12-18T06:08:27;18.98;;;9.10;;
64712;SDS011;51140;45.340;5.980;2022-12-18T06:10:53;22.98;;;9.70;;
64712;SDS011;51140;45.340;5.980;2022-12-18T06:13:19;17.58;;;7.95;;
64712;SDS011;51140;45.340;5.980;2022-12-18T06:15:45;18.48;;;8.93;;
64712;SDS011;51140;45.340;5.980;2022-12-18T06:18:11;20.42;;;6.90;;
64712;SDS011;51140;45.340;5.980;2022-12-18T06:20:36;18.27;;;7.45;;
64712;SDS011;51140;45.340;5.980;2022-12-18T06:23:04;17.08;;;7.30;;
64712;SDS011;51140;45.340;5.980;2022-12-18T06:25:30;20.05;;;7.53;;
64712;SDS011;51140;45.340;5.980;2022-12-18T06:27:56;14.38;;;6.68;;
64712;SDS011;51140;45.340;5.980;2022-12-18T06:30:21;18.67;;;8.38;;
64712;SDS011;51140;45.340;5.980;2022-12-18T06:32:50;15.85;;;6.93;;
64712;SDS011;51140;45.340;5.980;2022-12-18T06:35:16;16.77;;;6.78;;
64712;SDS011;51140;45.340;5.980;2022-12-18T06:37:41;14.30;;;6.40;;
64712;SDS011;51140;45.340;5.980;2022-12-18T06:40:07;12.25;;;5.85;;
64712;SDS011;51140;45.340;5.980;2022-12-18T06:42:33;16.42;;;6.47;;
64712;SDS011;51140;45.340;5.980;2022-12-18T06:44:58;16.17;;;7.28;;
64712;SDS011;51140;45.340;5.980;2022-12-18T06:47:23;14.32;;;6.53;;
64712;SDS011;51140;45.340;5.980;2022-12-18T06:49:49;16.27;;;6.75;;
64712;SDS011;51140;45.340;5.980;2022-12-18T06:52:14;13.80;;;5.10;;
64712;SDS011;51140;45.340;5.980;2022-12-18T06:54:40;15.15;;;5.40;;
64712;SDS011;51140;45.340;5.980;2022-12-18T06:57:05;14.57;;;6.07;;
64712;SDS011;51140;45.340;5.980;2022-12-18T06:59:30;13.90;;;5.88;;
64712;SDS011;51140;45.340;5.980;2022-12-18T07:01:56;14.88;;;5.78;;
64712;SDS011;51140;45.340;5.980;2022-12-18T07:04:21;13.90;;;5.57;;
64712;SDS011;51140;45.340;5.980;2022-12-18T07:06:46;15.35;;;6.78;;
64712;SDS011;51140;45.340;5.980;2022-12-18T07:09:12;15.65;;;6.93;;
64712;SDS011;51140;45.340;5.980;2022-12-18T07:11:37;21.83;;;9.52;;
64712;SDS011;51140;45.340;5.980;2022-12-18T07:14:03;21.85;;;9.13;;
64712;SDS011;51140;45.340;5.980;2022-12-18T07:16:28;20.58;;;9.00;;
64712;SDS011;51140;45.340;5.980;2022-12-18T07:18:54;23.50;;;8.38;;
64712;SDS011;51140;45.340;5.980;2022-12-18T07:21:21;14.93;;;6.22;;
64712;SDS011;51140;45.340;5.980;2022-12-18T07:23:47;34.63;;;16.85;;
64712;SDS011;51140;45.340;5.980;2022-12-18T07:26:13;31.17;;;15.30;;
64712;SDS011;51140;45.340;5.980;2022-12-18T07:28:40;18.58;;;9.00;;
64712;SDS011;51140;45.340;5.980;2022-12-18T07:31:07;17.27;;;8.25;;
64712;SDS011;51140;45.340;5.980;2022-12-18T07:33:35;15.02;;;6.30;;
64712;SDS011;51140;45.340;5.980;2022-12-18T07:36:04;23.40;;;9.40;;
64712;SDS011;51140;45.340;5.980;2022-12-18T07:38:31;29.35;;;12.48;;
64712;SDS011;51140;45.340;5.980;2022-12-18T07:41:01;31.15;;;15.35;;
64712;SDS011;51140;45.340;5.980;2022-12-18T07:43:28;34.53;;;15.43;;
64712;SDS011;51140;45.340;5.980;2022-12-18T07:45:53;46.15;;;21.85;;
64712;SDS011;51140;45.340;5.980;2022-12-18T07:48:18;201.38;;;66.20;;
64712;SDS011;51140;45.340;5.980;2022-12-18T07:50:44;53.15;;;24.13;;
64712;SDS011;51140;45.340;5.980;2022-12-18T07:53:09;40.15;;;18.40;;
64712;SDS011;51140;45.340;5.980;2022-12-18T07:55:35;28.88;;;14.23;;
64712;SDS011;51140;45.340;5.980;2022-12-18T07:58:01;41.03;;;17.73;;
64712;SDS011;51140;45.340;5.980;2022-12-18T08:00:27;39.10;;;20.88;;
64712;SDS011;51140;45.340;5.980;2022-12-18T08:02:52;42.17;;;21.30;;
64712;SDS011;51140;45.340;5.980;2022-12-18T08:05:18;68.78;;;33.00;;
64712;SDS011;51140;45.340;5.980;2022-12-18T08:07:43;48.20;;;24.08;;
64712;SDS011;51140;45.340;5.980;2022-12-18T08:10:09;41.00;;;21.52;;
64712;SDS011;51140;45.340;5.980;2022-12-18T08:12:34;39.17;;;20.55;;
64712;SDS011;51140;45.340;5.980;2022-12-18T08:15:00;37.40;;;20.73;;
64712;SDS011;51140;45.340;5.980;2022-12-18T08:17:25;44.45;;;24.73;;
64712;SDS011;51140;45.340;5.980;2022-12-18T08:19:50;47.13;;;23.88;;
64712;SDS011;51140;45.340;5.980;2022-12-18T08:22:16;44.13;;;22.65;;
64712;SDS011;51140;45.340;5.980;2022-12-18T08:24:41;38.28;;;22.17;;
64712;SDS011;51140;45.340;5.980;2022-12-18T08:27:07;44.25;;;22.88;;
64712;SDS011;51140;45.340;5.980;2022-12-18T08:29:32;37.80;;;22.13;;
64712;SDS011;51140;45.340;5.980;2022-12-18T08:31:58;44.22;;;22.50;;
64712;SDS011;51140;45.340;5.980;2022-12-18T08:34:25;45.20;;;23.15;;
64712;SDS011;51140;45.340;5.980;2022-12-18T08:36:50;41.78;;;23.52;;
64712;SDS011;51140;45.340;5.980;2022-12-18T08:39:16;41.70;;;23.48;;
64712;SDS011;51140;45.340;5.980;2022-12-18T08:41:41;40.17;;;20.73;;
64712;SDS011;51140;45.340;5.980;2022-12-18T08:44:07;38.22;;;21.45;;
64712;SDS011;51140;45.340;5.980;2022-12-18T08:46:51;39.45;;;22.83;;
64712;SDS011;51140;45.340;5.980;2022-12-18T08:49:17;42.83;;;22.40;;
64712;SDS011;51140;45.340;5.980;2022-12-18T08:51:42;38.63;;;21.45;;
64712;SDS011;51140;45.340;5.980;2022-12-18T08:54:09;60.45;;;23.00;;
64712;SDS011;51140;45.340;5.980;2022-12-18T08:56:36;38.70;;;20.05;;
64712;SDS011;51140;45.340;5.980;2022-12-18T08:59:02;45.60;;;20.48;;
64712;SDS011;51140;45.340;5.980;2022-12-18T09:01:29;85.53;;;22.15;;
64712;SDS011;51140;45.340;5.980;2022-12-18T09:03:54;56.95;;;20.17;;
64712;SDS011;51140;45.340;5.980;2022-12-18T09:06:20;143.68;;;25.33;;
64712;SDS011;51140;45.340;5.980;2022-12-18T09:08:46;266.13;;;33.25;;
64712;SDS011;51140;45.340;5.980;2022-12-18T09:11:18;267.55;;;35.10;;
64712;SDS011;51140;45.340;5.980;2022-12-18T09:13:46;253.98;;;51.05;;
64712;SDS011;51140;45.340;5.980;2022-12-18T09:16:11;168.00;;;32.00;;
64712;SDS011;51140;45.340;5.980;2022-12-18T09:18:37;157.60;;;30.75;;
64712;SDS011;51140;45.340;5.980;2022-12-18T09:21:12;185.48;;;34.13;;
64712;SDS011;51140;45.340;5.980;2022-12-18T09:23:39;130.68;;;33.70;;
64712;SDS011;51140;45.340;5.980;2022-12-18T09:26:05;107.47;;;32.42;;
64712;SDS011;51140;45.340;5.980;2022-12-18T09:28:31;139.60;;;32.28;;
64712;SDS011;51140;45.340;5.980;2022-12-18T09:30:56;97.55;;;28.63;;
64712;SDS011;51140;45.340;5.980;2022-12-18T09:33:21;84.63;;;28.80;;
64712;SDS011;51140;45.340;5.980;2022-12-18T09:35:47;45.78;;;23.77;;
64712;SDS011;51140;45.340;5.980;2022-12-18T09:38:13;38.13;;;17.88;;
64712;SDS011;51140;45.340;5.980;2022-12-18T09:40:42;63.35;;;30.88;;
64712;SDS011;51140;45.340;5.980;2022-12-18T09:43:16;67.57;;;36.20;;
64712;SDS011;51140;45.340;5.980;2022-12-18T09:45:45;52.90;;;29.05;;
64712;SDS011;51140;45.340;5.980;2022-12-18T09:48:31;35.08;;;17.05;;
64712;SDS011;51140;45.340;5.980;2022-12-18T09:51:09;34.23;;;18.60;;
64712;SDS011;51140;45.340;5.980;2022-12-18T09:53:39;74.35;;;35.90;;
64712;SDS011;51140;45.340;5.980;2022-12-18T09:56:12;94.00;;;48.38;;
64712;SDS011;51140;45.340;5.980;2022-12-18T09:58:45;73.82;;;38.67;;
64712;SDS011;51140;45.340;5.980;2022-12-18T10:01:33;74.18;;;37.75;;
64712;SDS011;51140;45.340;5.980;2022-12-18T10:03:58;77.82;;;37.67;;
64712;SDS011;51140;45.340;5.980;2022-12-18T10:12:34;69.57;;;37.78;;
64712;SDS011;51140;45.340;5.980;2022-12-18T10:17:36;72.80;;;35.88;;
64712;SDS011;51140;45.340;5.980;2022-12-18T10:20:03;78.95;;;41.22;;
64712;SDS011;51140;45.340;5.980;2022-12-18T10:27:44;74.65;;;39.47;;
64712;SDS011;51140;45.340;5.980;2022-12-18T10:30:13;83.78;;;52.28;;
64712;SDS011;51140;45.340;5.980;2022-12-18T10:32:41;54.78;;;33.33;;
64712;SDS011;51140;45.340;5.980;2022-12-18T10:35:23;62.00;;;35.40;;
64712;SDS011;51140;45.340;5.980;2022-12-18T10:40:47;49.97;;;27.48;;
64712;SDS011;51140;45.340;5.980;2022-12-18T10:43:13;51.90;;;29.55;;
64712;SDS011;51140;45.340;5.980;2022-12-18T10:45:40;56.17;;;30.55;;
64712;SDS011;51140;45.340;5.980;2022-12-18T10:48:19;49.25;;;27.27;;
64712;SDS011;51140;45.340;5.980;2022-12-18T10:50:50;49.17;;;27.73;;
64712;SDS011;51140;45.340;5.980;2022-12-18T10:53:21;59.85;;;32.47;;
64712;SDS011;51140;45.340;5.980;2022-12-18T10:56:00;93.47;;;44.65;;
64712;SDS011;51140;45.340;5.980;2022-12-18T10:58:29;90.30;;;44.67;;
64712;SDS011;51140;45.340;5.980;2022-12-18T11:01:07;69.78;;;36.47;;
64712;SDS011;51140;45.340;5.980;2022-12-18T11:03:43;48.22;;;27.77;;
64712;SDS011;51140;45.340;5.980;2022-12-18T11:06:11;49.63;;;27.77;;
64712;SDS011;51140;45.340;5.980;2022-12-18T11:08:57;44.95;;;26.13;;
64712;SDS011;51140;45.340;5.980;2022-12-18T11:11:24;49.05;;;28.40;;
64712;SDS011;51140;45.340;5.980;2022-12-18T11:14:04;44.53;;;24.75;;
64712;SDS011;51140;45.340;5.980;2022-12-18T11:16:43;46.92;;;25.40;;
64712;SDS011;51140;45.340;5.980;2022-12-18T11:19:21;43.80;;;25.67;;
64712;SDS011;51140;45.340;5.980;2022-12-18T11:22:24;44.25;;;25.00;;
64712;SDS011;51140;45.340;5.980;2022-12-18T11:25:01;40.17;;;22.75;;
64712;SDS011;51140;45.340;5.980;2022-12-18T11:30:06;40.20;;;22.60;;
64712;SDS011;51140;45.340;5.980;2022-12-18T11:32:43;39.22;;;20.98;;
64712;SDS011;51140;45.340;5.980;2022-12-18T11:40:52;36.15;;;21.08;;
64712;SDS011;51140;45.340;5.980;2022-12-18T11:43:35;41.13;;;23.42;;
64712;SDS011;51140;45.340;5.980;2022-12-18T11:46:16;37.60;;;22.63;;
64712;SDS011;51140;45.340;5.980;2022-12-18T11:48:55;33.85;;;20.20;;
64712;SDS011;51140;45.340;5.980;2022-12-18T11:51:38;39.33;;;23.05;;
64712;SDS011;51140;45.340;5.980;2022-12-18T11:54:13;35.25;;;21.13;;
64712;SDS011;51140;45.340;5.980;2022-12-18T11:56:43;38.75;;;21.52;;
64712;SDS011;51140;45.340;5.980;2022-12-18T11:59:17;36.03;;;21.73;;
64712;SDS011;51140;45.340;5.980;2022-12-18T12:04:58;38.08;;;23.70;;
64712;SDS011;51140;45.340;5.980;2022-12-18T12:07:47;34.25;;;22.00;;
64712;SDS011;51140;45.340;5.980;2022-12-18T12:15:29;27.77;;;15.85;;
64712;SDS011;51140;45.340;5.980;2022-12-18T12:21:07;27.20;;;15.93;;
64712;SDS011;51140;45.340;5.980;2022-12-18T12:24:29;29.33;;;15.82;;
64712;SDS011;51140;45.340;5.980;2022-12-18T12:26:34;28.75;;;16.42;;
64712;SDS011;51140;45.340;5.980;2022-12-18T12:32:47;28.67;;;15.68;;
64712;SDS011;51140;45.340;5.980;2022-12-18T12:37:54;22.60;;;12.73;;
64712;SDS011;51140;45.340;5.980;2022-12-18T12:40:23;27.38;;;12.00;;
64712;SDS011;51140;45.340;5.980;2022-12-18T12:42:56;15.80;;;8.60;;
64712;SDS011;51140;45.340;5.980;2022-12-18T12:45:45;29.40;;;15.23;;
64712;SDS011;51140;45.340;5.980;2022-12-18T12:48:16;19.65;;;10.25;;
64712;SDS011;51140;45.340;5.980;2022-12-18T12:50:47;18.10;;;9.80;;
64712;SDS011;51140;45.340;5.980;2022-12-18T12:53:35;17.38;;;10.07;;
64712;SDS011;51140;45.340;5.980;2022-12-18T12:56:01;26.08;;;13.18;;
64712;SDS011;51140;45.340;5.980;2022-12-18T12:58:36;23.38;;;14.32;;
64712;SDS011;51140;45.340;5.980;2022-12-18T13:09:32;12.25;;;6.05;;
64712;SDS011;51140;45.340;5.980;2022-12-18T13:12:03;11.55;;;6.30;;
64712;SDS011;51140;45.340;5.980;2022-12-18T13:14:54;13.70;;;6.90;;
64712;SDS011;51140;45.340;5.980;2022-12-18T13:17:38;16.25;;;8.00;;
64712;SDS011;51140;45.340;5.980;2022-12-18T13:20:12;18.25;;;9.30;;
64712;SDS011;51140;45.340;5.980;2022-12-18T13:22:46;19.50;;;9.93;;
64712;SDS011;51140;45.340;5.980;2022-12-18T13:25:29;13.35;;;7.10;;
64712;SDS011;51140;45.340;5.980;2022-12-18T13:38:24;32.10;;;13.05;;
64712;SDS011;51140;45.340;5.980;2022-12-18T13:40:58;45.72;;;17.52;;
64712;SDS011;51140;45.340;5.980;2022-12-18T13:48:26;25.45;;;9.73;;
64712;SDS011;51140;45.340;5.980;2022-12-18T13:53:36;13.45;;;6.00;;
64712;SDS011;51140;45.340;5.980;2022-12-18T13:56:07;14.73;;;7.43;;
64712;SDS011;51140;45.340;5.980;2022-12-18T13:58:32;15.52;;;7.20;;
64712;SDS011;51140;45.340;5.980;2022-12-18T14:00:58;23.42;;;10.90;;
64712;SDS011;51140;45.340;5.980;2022-12-18T14:03:25;10.90;;;5.45;;
64712;SDS011;51140;45.340;5.980;2022-12-18T14:05:54;30.63;;;12.60;;
64712;SDS011;51140;45.340;5.980;2022-12-18T14:08:21;29.48;;;12.32;;
64712;SDS011;51140;45.340;5.980;2022-12-18T14:10:48;16.48;;;8.15;;
64712;SDS011;51140;45.340;5.980;2022-12-18T14:13:37;8.45;;;4.53;;
64712;SDS011;51140;45.340;5.980;2022-12-18T14:16:05;9.82;;;4.68;;
64712;SDS011;51140;45.340;5.980;2022-12-18T14:21:06;45.25;;;21.90;;
64712;SDS011;51140;45.340;5.980;2022-12-18T14:23:44;21.30;;;12.82;;
64712;SDS011;51140;45.340;5.980;2022-12-18T14:26:20;16.00;;;8.00;;
64712;SDS011;51140;45.340;5.980;2022-12-18T14:28:58;8.20;;;3.78;;
64712;SDS011;51140;45.340;5.980;2022-12-18T14:31:29;10.30;;;4.25;;
64712;SDS011;51140;45.340;5.980;2022-12-18T14:33:56;8.70;;;3.67;;
64712;SDS011;51140;45.340;5.980;2022-12-18T14:36:28;9.88;;;4.18;;
64712;SDS011;51140;45.340;5.980;2022-12-18T14:38:57;12.68;;;5.75;;
64712;SDS011;51140;45.340;5.980;2022-12-18T14:41:24;13.38;;;6.05;;
64712;SDS011;51140;45.340;5.980;2022-12-18T14:43:51;12.73;;;6.78;;
64712;SDS011;51140;45.340;5.980;2022-12-18T14:46:25;7.90;;;3.67;;
64712;SDS011;51140;45.340;5.980;2022-12-18T14:49:04;19.33;;;8.55;;
64712;SDS011;51140;45.340;5.980;2022-12-18T14:51:46;9.70;;;4.70;;
64712;SDS011;51140;45.340;5.980;2022-12-18T14:54:17;10.38;;;6.60;;
64712;SDS011;51140;45.340;5.980;2022-12-18T14:56:48;9.23;;;3.80;;
64712;SDS011;51140;45.340;5.980;2022-12-18T14:59:25;10.15;;;4.70;;
64712;SDS011;51140;45.340;5.980;2022-12-18T15:04:27;17.85;;;9.30;;
64712;SDS011;51140;45.340;5.980;2022-12-18T15:07:09;10.10;;;5.30;;
64712;SDS011;51140;45.340;5.980;2022-12-18T15:09:36;14.73;;;7.65;;
64712;SDS011;51140;45.340;5.980;2022-12-18T15:12:04;8.52;;;4.63;;
64712;SDS011;51140;45.340;5.980;2022-12-18T15:14:31;5.97;;;1.92;;
64712;SDS011;51140;45.340;5.980;2022-12-18T15:17:00;6.43;;;2.45;;
64712;SDS011;51140;45.340;5.980;2022-12-18T15:19:39;6.53;;;2.60;;
64712;SDS011;51140;45.340;5.980;2022-12-18T15:22:20;9.55;;;3.47;;
64712;SDS011;51140;45.340;5.980;2022-12-18T15:24:48;6.57;;;2.67;;
64712;SDS011;51140;45.340;5.980;2022-12-18T15:27:21;7.22;;;3.45;;
64712;SDS011;51140;45.340;5.980;2022-12-18T15:32:33;5.25;;;1.80;;
64712;SDS011;51140;45.340;5.980;2022-12-18T15:35:18;6.85;;;3.17;;
64712;SDS011;51140;45.340;5.980;2022-12-18T15:37:45;6.65;;;2.45;;
64712;SDS011;51140;45.340;5.980;2022-12-18T15:40:12;8.50;;;3.60;;
64712;SDS011;51140;45.340;5.980;2022-12-18T15:42:40;7.95;;;3.50;;
64712;SDS011;51140;45.340;5.980;2022-12-18T15:45:25;5.38;;;2.17;;
64712;SDS011;51140;45.340;5.980;2022-12-18T15:47:51;5.75;;;1.95;;
64712;SDS011;51140;45.340;5.980;2022-12-18T15:50:16;4.65;;;1.60;;
64712;SDS011;51140;45.340;5.980;2022-12-18T15:52:43;4.38;;;1.50;;
64712;SDS011;51140;45.340;5.980;2022-12-18T15:55:11;6.78;;;3.13;;
64712;SDS011;51140;45.340;5.980;2022-12-18T15:58:00;5.47;;;2.00;;
64712;SDS011;51140;45.340;5.980;2022-12-18T16:00:25;5.32;;;1.88;;
64712;SDS011;51140;45.340;5.980;2022-12-18T16:02:51;4.78;;;1.80;;
64712;SDS011;51140;45.340;5.980;2022-12-18T16:05:17;4.80;;;1.90;;
64712;SDS011;51140;45.340;5.980;2022-12-18T16:07:44;3.75;;;1.40;;
64712;SDS011;51140;45.340;5.980;2022-12-18T16:10:10;5.63;;;2.00;;
64712;SDS011;51140;45.340;5.980;2022-12-18T16:12:36;6.75;;;2.20;;
64712;SDS011;51140;45.340;5.980;2022-12-18T16:15:02;7.03;;;2.53;;
64712;SDS011;51140;45.340;5.980;2022-12-18T16:17:29;5.32;;;1.98;;
64712;SDS011;51140;45.340;5.980;2022-12-18T16:19:55;9.35;;;3.45;;
64712;SDS011;51140;45.340;5.980;2022-12-18T16:22:21;5.30;;;2.22;;
64712;SDS011;51140;45.340;5.980;2022-12-18T16:24:49;7.25;;;2.83;;
64712;SDS011;51140;45.340;5.980;2022-12-18T16:27:15;6.13;;;2.30;;
64712;SDS011;51140;45.340;5.980;2022-12-18T16:29:41;5.85;;;2.20;;
64712;SDS011;51140;45.340;5.980;2022-12-18T16:32:08;7.22;;;2.65;;
64712;SDS011;51140;45.340;5.980;2022-12-18T16:34:38;5.28;;;2.00;;
64712;SDS011;51140;45.340;5.980;2022-12-18T16:37:04;6.68;;;2.10;;
64712;SDS011;51140;45.340;5.980;2022-12-18T16:39:30;6.13;;;2.33;;